createdAt,value
2022-07-30T00:00:24.998Z,5.80
2022-07-30T00:05:27.827Z,5.22
2022-07-30T00:10:30.189Z,6.35
2022-07-30T00:15:32.514Z,9.27
2022-07-30T00:20:34.859Z,9.50
2022-07-30T00:25:37.558Z,8.60
2022-07-30T00:30:40.681Z,9.70
2022-07-30T00:35:45.624Z,7.10
2022-07-30T00:40:49.253Z,7.65
2022-07-30T00:45:54.421Z,8.07
2022-07-30T00:50:56.706Z,15.68
2022-07-30T00:55:59.521Z,8.85
2022-07-30T01:01:01.783Z,6.82
2022-07-30T01:06:04.562Z,10.75
2022-07-30T01:11:07.005Z,10.20
2022-07-30T01:16:10.565Z,7.55
2022-07-30T01:21:16.042Z,7.10
2022-07-30T01:26:19.652Z,6.72
2022-07-30T01:31:23.637Z,8.93
2022-07-30T01:36:27.312Z,11.07
2022-07-30T01:41:30.573Z,6.93
2022-07-30T01:46:33.767Z,13.00
2022-07-30T01:51:37.890Z,6.57
2022-07-30T01:56:41.144Z,8.55
2022-07-30T02:01:43.588Z,7.03
2022-07-30T02:06:48.706Z,8.55
2022-07-30T02:12:11.419Z,9.02
2022-07-30T02:17:26.599Z,7.22
2022-07-30T02:22:34.689Z,6.57
2022-07-30T02:27:38.994Z,10.30
2022-07-30T02:32:42.546Z,8.37
2022-07-30T02:37:47.434Z,9.80
2022-07-30T02:42:52.133Z,7.85
2022-07-30T02:48:07.894Z,8.68
2022-07-30T02:53:14.144Z,6.82
2022-07-30T02:58:20.515Z,6.82
2022-07-30T03:03:28.929Z,7.55
2022-07-30T03:08:32.150Z,8.43
2022-07-30T03:13:34.471Z,7.80
2022-07-30T03:18:39.179Z,12.40
2022-07-30T03:23:42.480Z,10.27
2022-07-30T03:28:46.259Z,8.27
2022-07-30T03:33:48.968Z,9.05
2022-07-30T03:38:51.284Z,8.20
2022-07-30T03:43:54.271Z,7.10
2022-07-30T03:48:57.299Z,10.98
2022-07-30T03:54:01.193Z,10.57
2022-07-30T03:59:25.078Z,9.27
2022-07-30T04:04:27.572Z,7.18
2022-07-30T04:09:31.221Z,9.60
2022-07-30T04:14:44.471Z,10.48
2022-07-30T04:19:50.721Z,12.85
2022-07-30T04:24:53.912Z,11.27
2022-07-30T04:29:56.564Z,13.43
2022-07-30T04:34:59.055Z,11.00
2022-07-30T04:40:25.022Z,13.60
2022-07-30T04:45:27.564Z,11.68
2022-07-30T04:50:34.241Z,10.25
2022-07-30T04:55:41.079Z,9.53
2022-07-30T05:00:44.333Z,14.25
2022-07-30T05:05:54.080Z,9.10
2022-07-30T05:11:00.132Z,13.83
2022-07-30T05:16:03.017Z,14.15
2022-07-30T05:21:05.531Z,12.10
2022-07-30T05:26:11.729Z,12.45
2022-07-30T05:31:21.361Z,14.13
2022-07-30T05:36:32.261Z,13.50
2022-07-30T05:41:35.637Z,13.82
2022-07-30T05:46:55.490Z,14.95
2022-07-30T05:51:58.593Z,18.48
2022-07-30T05:57:01.837Z,22.65
2022-07-30T06:02:09.782Z,18.17
2022-07-30T06:07:30.539Z,14.88
2022-07-30T06:12:35.071Z,19.02
2022-07-30T06:17:54.638Z,19.50
2022-07-30T06:23:18.219Z,21.95
2022-07-30T06:28:48.046Z,22.33
2022-07-30T06:33:55.263Z,21.83
2022-07-30T06:38:58.257Z,29.38
2022-07-30T06:44:14.427Z,27.02
2022-07-30T06:49:37.547Z,26.10
2022-07-30T06:54:41.500Z,30.75
2022-07-30T06:59:56.809Z,41.50
2022-07-30T07:05:08.392Z,44.80
2022-07-30T07:10:11.930Z,43.17
2022-07-30T07:15:22.329Z,53.60
2022-07-30T07:20:40.017Z,58.90
2022-07-30T07:25:44.553Z,60.90
2022-07-30T07:30:47.777Z,56.38
2022-07-30T07:35:50.796Z,62.20
2022-07-30T07:41:02.354Z,62.80
2022-07-30T07:46:06.887Z,62.40
2022-07-30T07:51:11.155Z,60.50
2022-07-30T07:56:14.139Z,60.63
2022-07-30T08:01:18.032Z,54.70
2022-07-30T08:06:39.110Z,57.88
2022-07-30T08:12:01.772Z,57.25
2022-07-30T08:17:45.845Z,50.88
2022-07-30T08:22:54.538Z,39.28
